Airfield :
LOGIN :

Register | Disclaimer

   EN    FR    IT 

 










Legend :    VFR   Marginal VFR   IFR   Intensive IFR   Very Intensive IFR
Visi :
Ceiling :
>= 8 km
>= 3000ft
5 to 8 km
1000 to 3000 ft
1500m to 5 km
500 to 1000 ft
800 to 1500m
200 to 500 ft
< 800m
< 200 ft
Symbols :   Thunderstorms  Fog  Heavy snow  Heavy precipitations  Wind > 20 kt
SIGMETs :     Misc.  Thunderstorms  Icing  Turbulence  Mountain Waves  Volcanic Ashes






- Airport Elevation : 782 ft
- IATA code : BGY


LIME - Orio al Serio International - Bergamo

CURRENT METAR :
  • 281050Z 18006KT 130V230 CAVOK 12/M13 Q1017 NOSIG

EXPIRED METARs :
  • 281020Z 19005KT 150V230 CAVOK 12/M12 Q1016 NOSIG
  • 280950Z 18004KT 110V220 CAVOK 11/M13 Q1016 NOSIG
  • 280920Z 12003KT 070V210 CAVOK 11/M13 Q1015 NOSIG
  • 280850Z VRB03KT CAVOK 11/M13 Q1015 NOSIG
  • 280820Z 08005KT 050V120 CAVOK 10/M13 Q1015 NOSIG
  • 280750Z 36006KT 310V090 CAVOK 09/M12 Q1014 NOSIG

TAF TAF LIME
Valid from the 28 at 06:00 until the 29 at 06:00 UTC


280500Z 2806/2906 30012KT CAVOK
BECMG 2808/2810 VRB05KT



MET'MAP, your aeronautical weather chart ! - Copyright ORBIFLY December 2007 - Disclaimer

ORBIFLY MET'MAP TEAM :

Programming & Development : Alexandra Zaïnal
Concept & original design : Baudouin d'Aumeries
Assistance for programming : Marc-Olivier Méhu
Technical & hardware support : Manuel Goepfert

Contact : metmap@orbifly.com




SOURCES & CREDITS :

   NOAA